Back to Top

Language: 

My Weather Underground Personal Weather Station Historical Data with Graphs...

Delerius Weather Station Historical Data
Daily Summary for June 26, 2017 Units:  English    Metric   Both
« Previous Day
Next Day »
Daily Weekly Monthly Yearly Custom
  High: Low: Average:
Temperature: 68.7 °F 46.2 °F 59.6 °F
Dew Point: 51.1 °F 42.7 °F 45.7 °F
Humidity: 90 % 42 % 63 %
Wind Speed: 9.0 mph 0.0 mph 4.2 mph
Wind Gust: 15.0 mph - -
Wind:- - WSW
Pressure: 29.96 in 29.90 in -
Precipitation: 0.00 in    
Historical Graphs
 
 
Tabular Data for June 26, 2017
Time Temperature Dew Point Pressure Wind Wind Speed Wind Gust Humidity Rainfall Rate (Hourly) solar Conditions
00:00 52.3 °F 46.4 °F 29.91 in WNW 5.0 mph 9.0 mph 80 % 0.00 in 0 W/m2
00:05 52.3 °F 46.4 °F 29.91 in WNW 4.0 mph 8.0 mph 80 % 0.00 in 0 W/m2
00:10 52.2 °F 46.2 °F 29.92 in WNW 4.0 mph 7.0 mph 80 % 0.00 in 0 W/m2
00:15 52.0 °F 46.0 °F 29.91 in WNW 4.0 mph 7.0 mph 80 % 0.00 in 0 W/m2
00:20 52.0 °F 46.0 °F 29.91 in WNW 5.0 mph 9.0 mph 80 % 0.00 in 0 W/m2
00:25 51.8 °F 45.8 °F 29.91 in WNW 6.0 mph 9.0 mph 80 % 0.00 in 0 W/m2
00:30 51.6 °F 46.0 °F 29.92 in WNW 5.0 mph 9.0 mph 81 % 0.00 in 0 W/m2
00:35 51.4 °F 45.8 °F 29.92 in WNW 5.0 mph 8.0 mph 81 % 0.00 in 0 W/m2
00:40 51.4 °F 45.8 °F 29.92 in WNW 4.0 mph 8.0 mph 81 % 0.00 in 0 W/m2
00:45 51.3 °F 45.6 °F 29.92 in NW 3.0 mph 7.0 mph 81 % 0.00 in 0 W/m2
00:50 51.3 °F 45.6 °F 29.92 in WNW 4.0 mph 7.0 mph 81 % 0.00 in 0 W/m2
00:55 51.1 °F 45.5 °F 29.92 in WNW 4.0 mph 7.0 mph 81 % 0.00 in 0 W/m2
01:00 50.9 °F 45.3 °F 29.92 in WNW 3.0 mph 7.0 mph 81 % 0.00 in 0 W/m2
01:05 50.7 °F 45.4 °F 29.92 in WNW 3.0 mph 6.0 mph 82 % 0.00 in 0 W/m2
01:10 50.5 °F 45.2 °F 29.93 in WNW 2.0 mph 6.0 mph 82 % 0.00 in 0 W/m2
01:16 50.4 °F 45.1 °F 29.93 in WNW 2.0 mph 7.0 mph 82 % 0.00 in 0 W/m2
01:21 50.4 °F 45.1 °F 29.93 in WNW 4.0 mph 8.0 mph 82 % 0.00 in 0 W/m2
01:26 50.4 °F 45.1 °F 29.93 in WNW 6.0 mph 8.0 mph 82 % 0.00 in 0 W/m2
01:31 50.4 °F 45.4 °F 29.93 in WNW 6.0 mph 9.0 mph 83 % 0.00 in 0 W/m2
01:36 50.4 °F 45.1 °F 29.93 in WNW 4.0 mph 9.0 mph 82 % 0.00 in 0 W/m2
01:41 50.2 °F 44.9 °F 29.93 in WNW 3.0 mph 7.0 mph 82 % 0.00 in 0 W/m2
01:46 50.2 °F 44.9 °F 29.93 in WNW 4.0 mph 8.0 mph 82 % 0.00 in 0 W/m2
01:51 50.2 °F 44.9 °F 29.93 in WNW 4.0 mph 8.0 mph 82 % 0.00 in 0 W/m2
01:56 50.2 °F 44.9 °F 29.93 in NW 2.0 mph 6.0 mph 82 % 0.00 in 0 W/m2
02:01 50.0 °F 44.7 °F 29.93 in Calm   4.0 mph 82 % 0.00 in 0 W/m2
02:06 49.8 °F 44.5 °F 29.93 in Calm   2.0 mph 82 % 0.00 in 0 W/m2
02:11 49.6 °F 44.4 °F 29.93 in Calm   5.0 mph 82 % 0.00 in 0 W/m2
02:16 49.5 °F 44.5 °F 29.93 in WNW 2.0 mph 5.0 mph 83 % 0.00 in 0 W/m2
02:21 49.3 °F 44.3 °F 29.93 in West 2.0 mph 5.0 mph 83 % 0.00 in 0 W/m2
02:26 48.9 °F 44.3 °F 29.93 in Calm   4.0 mph 84 % 0.00 in 0 W/m2
02:31 48.7 °F 44.1 °F 29.93 in Calm     84 % 0.00 in 0 W/m2
02:36 48.6 °F 44.3 °F 29.93 in Calm   2.0 mph 85 % 0.00 in 0 W/m2
02:41 48.4 °F 44.1 °F 29.93 in Calm   2.0 mph 85 % 0.00 in 0 W/m2
02:46 48.4 °F 44.1 °F 29.93 in Calm   2.0 mph 85 % 0.00 in 0 W/m2
02:51 48.0 °F 44.0 °F 29.93 in Calm   2.0 mph 86 % 0.00 in 0 W/m2
02:56 47.8 °F 43.5 °F 29.93 in Calm     85 % 0.00 in 0 W/m2
03:01 47.7 °F 43.7 °F 29.93 in Calm     86 % 0.00 in 0 W/m2
03:06 47.5 °F 43.5 °F 29.93 in West 1.0 mph 5.0 mph 86 % 0.00 in 0 W/m2
03:11 47.5 °F 43.8 °F 29.93 in West 2.0 mph 5.0 mph 87 % 0.00 in 0 W/m2
03:16 47.3 °F 43.6 °F 29.93 in West 2.0 mph 5.0 mph 87 % 0.00 in 0 W/m2
03:21 47.1 °F 43.7 °F 29.93 in West 3.0 mph 5.0 mph 88 % 0.00 in 0 W/m2
03:26 47.1 °F 43.7 °F 29.93 in West 3.0 mph 5.0 mph 88 % 0.00 in 0 W/m2
03:31 47.1 °F 43.7 °F 29.93 in West 2.0 mph 5.0 mph 88 % 0.00 in 0 W/m2
03:36 47.1 °F 44.0 °F 29.93 in West 1.0 mph 4.0 mph 89 % 0.00 in 0 W/m2
03:41 47.1 °F 44.0 °F 29.93 in West 1.0 mph 4.0 mph 89 % 0.00 in 0 W/m2
03:46 46.9 °F 43.9 °F 29.93 in West 1.0 mph 5.0 mph 89 % 0.00 in 0 W/m2
03:51 46.9 °F 43.9 °F 29.93 in West 1.0 mph 5.0 mph 89 % 0.00 in 0 W/m2
03:57 46.9 °F 43.9 °F 29.94 in Calm   1.0 mph 89 % 0.00 in 0 W/m2
04:02 46.8 °F 43.7 °F 29.94 in Calm   1.0 mph 89 % 0.00 in 0 W/m2
04:07 46.6 °F 43.5 °F 29.94 in Calm   2.0 mph 89 % 0.00 in 0 W/m2
04:12 46.6 °F 43.5 °F 29.93 in Calm   2.0 mph 89 % 0.00 in 0 W/m2
04:17 46.6 °F 43.8 °F 29.93 in Calm   1.0 mph 90 % 0.00 in 0 W/m2
04:22 46.6 °F 43.8 °F 29.93 in Calm   1.0 mph 90 % 0.00 in 0 W/m2
04:27 46.6 °F 43.8 °F 29.94 in Calm     90 % 0.00 in 0 W/m2
04:32 46.4 °F 43.6 °F 29.93 in Calm     90 % 0.00 in 0 W/m2
04:37 46.2 °F 43.4 °F 29.93 in Calm   2.0 mph 90 % 0.00 in 0 W/m2
04:42 46.2 °F 43.4 °F 29.93 in West 2.0 mph 5.0 mph 90 % 0.00 in 5 W/m2
04:47 46.2 °F 43.4 °F 29.93 in West 3.0 mph 6.0 mph 90 % 0.00 in 7 W/m2
04:52 46.4 °F 43.6 °F 29.94 in WNW 2.0 mph 6.0 mph 90 % 0.00 in 7 W/m2
04:57 46.4 °F 43.6 °F 29.93 in WNW 1.0 mph 5.0 mph 90 % 0.00 in 9 W/m2
05:02 46.2 °F 43.4 °F 29.93 in WNW 1.0 mph 4.0 mph 90 % 0.00 in 11 W/m2
05:07 46.2 °F 43.4 °F 29.93 in WNW 2.0 mph 4.0 mph 90 % 0.00 in 12 W/m2
05:12 46.2 °F 43.4 °F 29.94 in WNW 2.0 mph 5.0 mph 90 % 0.00 in 16 W/m2
05:17 46.2 °F 43.4 °F 29.94 in WNW 3.0 mph 5.0 mph 90 % 0.00 in 18 W/m2
05:22 46.4 °F 43.6 °F 29.94 in WNW 3.0 mph 5.0 mph 90 % 0.00 in 21 W/m2
05:27 46.4 °F 43.6 °F 29.94 in WNW 3.0 mph 5.0 mph 90 % 0.00 in 25 W/m2
05:32 46.6 °F 43.8 °F 29.94 in WNW 3.0 mph 5.0 mph 90 % 0.00 in 28 W/m2
05:37 46.8 °F 44.0 °F 29.94 in WNW 3.0 mph 6.0 mph 90 % 0.00 in 30 W/m2
05:47 46.9 °F 44.2 °F 29.94 in WNW 3.0 mph 6.0 mph 90 % 0.00 in 28 W/m2
05:52 47.1 °F 44.3 °F 29.94 in WNW 3.0 mph 6.0 mph 90 % 0.00 in 28 W/m2
05:57 47.5 °F 44.7 °F 29.94 in NW 3.0 mph 5.0 mph 90 % 0.00 in 58 W/m2
06:02 47.8 °F 45.0 °F 29.94 in NW 3.0 mph 5.0 mph 90 % 0.00 in 113 W/m2
06:08 48.4 °F 45.3 °F 29.94 in NW 3.0 mph 5.0 mph 89 % 0.00 in 123 W/m2
06:13 48.7 °F 45.6 °F 29.94 in NW 3.0 mph 5.0 mph 89 % 0.00 in 70 W/m2
06:18 49.3 °F 45.9 °F 29.94 in WNW 2.0 mph 5.0 mph 88 % 0.00 in 40 W/m2
06:23 49.6 °F 46.2 °F 29.94 in WNW 3.0 mph 6.0 mph 88 % 0.00 in 49 W/m2
06:28 50.2 °F 46.5 °F 29.94 in WNW 4.0 mph 6.0 mph 87 % 0.00 in 51 W/m2
06:33 50.5 °F 46.5 °F 29.94 in WNW 5.0 mph 8.0 mph 86 % 0.00 in 44 W/m2
06:38 50.9 °F 46.6 °F 29.94 in WNW 5.0 mph 8.0 mph 85 % 0.00 in 44 W/m2
06:43 51.3 °F 46.9 °F 29.95 in WNW 5.0 mph 8.0 mph 85 % 0.00 in 49 W/m2
06:48 51.8 °F 46.8 °F 29.95 in WNW 6.0 mph 10.0 mph 83 % 0.00 in 47 W/m2
06:53 52.2 °F 46.8 °F 29.95 in WNW 6.0 mph 10.0 mph 82 % 0.00 in 46 W/m2
06:58 52.5 °F 46.5 °F 29.95 in WNW 6.0 mph 10.0 mph 80 % 0.00 in 42 W/m2
07:03 53.1 °F 46.7 °F 29.95 in WNW 7.0 mph 10.0 mph 79 % 0.00 in 42 W/m2
07:08 53.2 °F 46.6 °F 29.95 in WNW 7.0 mph 12.0 mph 78 % 0.00 in 42 W/m2
07:13 53.8 °F 46.7 °F 29.95 in WNW 7.0 mph 12.0 mph 77 % 0.00 in 113 W/m2
07:18 54.1 °F 47.1 °F 29.95 in WNW 7.0 mph 11.0 mph 77 % 0.00 in 302 W/m2
07:23 54.7 °F 47.3 °F 29.95 in WNW 6.0 mph 11.0 mph 76 % 0.00 in 313 W/m2
07:28 55.2 °F 47.4 °F 29.95 in WNW 6.0 mph 11.0 mph 75 % 0.00 in 327 W/m2
07:33 56.1 °F 47.9 °F 29.95 in WNW 7.0 mph 11.0 mph 74 % 0.00 in 345 W/m2
07:38 56.7 °F 48.1 °F 29.95 in WNW 7.0 mph 11.0 mph 73 % 0.00 in 352 W/m2
07:43 57.4 °F 48.4 °F 29.95 in NW 5.0 mph 10.0 mph 72 % 0.00 in 360 W/m2
07:48 58.1 °F 48.4 °F 29.95 in NW 5.0 mph 9.0 mph 70 % 0.00 in 376 W/m2
07:53 58.5 °F 47.9 °F 29.95 in NW 6.0 mph 10.0 mph 68 % 0.00 in 390 W/m2
07:58 58.8 °F 47.9 °F 29.95 in WNW 6.0 mph 10.0 mph 67 % 0.00 in 411 W/m2
08:03 59.4 °F 48.0 °F 29.95 in NW 5.0 mph 10.0 mph 66 % 0.00 in 411 W/m2
08:08 59.7 °F 47.9 °F 29.95 in NW 5.0 mph 11.0 mph 65 % 0.00 in 436 W/m2
08:09 59.7 °F 47.9 °F 29.95 in NW 5.0 mph 11.0 mph 65 % 0.00 in 436 W/m2
08:14 60.3 °F 48.0 °F 29.95 in NW 4.0 mph 11.0 mph 64 % 0.00 in 450 W/m2
08:19 60.6 °F 47.5 °F 29.95 in NW 5.0 mph 13.0 mph 62 % 0.00 in 462 W/m2
08:24 61.0 °F 47.9 °F 29.95 in WNW 5.0 mph 13.0 mph 62 % 0.00 in 480 W/m2
08:29 61.2 °F 47.6 °F 29.95 in WNW 6.0 mph 12.0 mph 61 % 0.00 in 489 W/m2
08:34 61.2 °F 46.7 °F 29.95 in WNW 7.0 mph 12.0 mph 59 % 0.00 in 499 W/m2
08:39 61.3 °F 46.4 °F 29.95 in NW 7.0 mph 11.0 mph 58 % 0.00 in 517 W/m2
08:44 61.7 °F 46.8 °F 29.96 in NW 7.0 mph 13.0 mph 58 % 0.00 in 527 W/m2
08:49 61.9 °F 46.5 °F 29.95 in NW 7.0 mph 13.0 mph 57 % 0.00 in 538 W/m2
08:54 62.4 °F 46.5 °F 29.95 in NW 7.0 mph 12.0 mph 56 % 0.00 in 554 W/m2
08:59 62.8 °F 47.3 °F 29.95 in NW 6.0 mph 12.0 mph 57 % 0.00 in 566 W/m2
09:04 63.0 °F 47.0 °F 29.95 in WNW 6.0 mph 12.0 mph 56 % 0.00 in 580 W/m2
09:09 63.1 °F 46.2 °F 29.95 in WNW 7.0 mph 14.0 mph 54 % 0.00 in 619 W/m2
09:15 63.3 °F 46.4 °F 29.95 in NW 7.0 mph 14.0 mph 54 % 0.00 in 659 W/m2
09:20 63.3 °F 45.9 °F 29.95 in WNW 6.0 mph 13.0 mph 53 % 0.00 in 540 W/m2
09:25 63.3 °F 45.4 °F 29.95 in WNW 7.0 mph 13.0 mph 52 % 0.00 in 654 W/m2
09:30 63.3 °F 45.9 °F 29.95 in West 7.0 mph 13.0 mph 53 % 0.00 in 700 W/m2
09:35 64.0 °F 46.1 °F 29.95 in WNW 5.0 mph 12.0 mph 52 % 0.00 in 828 W/m2
09:40 64.6 °F 45.5 °F 29.95 in WNW 5.0 mph 11.0 mph 50 % 0.00 in 329 W/m2
09:45 64.2 °F 45.2 °F 29.95 in WNW 7.0 mph 12.0 mph 50 % 0.00 in 295 W/m2
09:50 63.7 °F 45.7 °F 29.95 in WNW 8.0 mph 14.0 mph 52 % 0.00 in 229 W/m2
09:56 63.1 °F 45.7 °F 29.95 in WNW 7.0 mph 14.0 mph 53 % 0.00 in 216 W/m2
10:01 62.8 °F 45.4 °F 29.95 in WNW 6.0 mph 12.0 mph 53 % 0.00 in 267 W/m2
10:06 63.0 °F 45.6 °F 29.95 in WNW 6.0 mph 9.0 mph 53 % 0.00 in 842 W/m2
10:11 63.3 °F 44.4 °F 29.95 in WNW 7.0 mph 15.0 mph 50 % 0.00 in 722 W/m2
10:16 63.7 °F 44.7 °F 29.95 in WNW 9.0 mph 15.0 mph 50 % 0.00 in 649 W/m2
10:21 63.9 °F 44.9 °F 29.95 in WNW 7.0 mph 12.0 mph 50 % 0.00 in 782 W/m2
10:26 64.0 °F 45.0 °F 29.95 in West 5.0 mph 13.0 mph 50 % 0.00 in 800 W/m2
10:31 64.2 °F 44.6 °F 29.95 in WSW 7.0 mph 13.0 mph 49 % 0.00 in 793 W/m2
10:36 64.4 °F 43.7 °F 29.95 in West 8.0 mph 12.0 mph 47 % 0.00 in 190 W/m2
10:41 64.6 °F 43.9 °F 29.95 in WNW 7.0 mph 14.0 mph 47 % 0.00 in 752 W/m2
10:46 64.9 °F 44.2 °F 29.95 in WNW 7.0 mph 14.0 mph 47 % 0.00 in 807 W/m2
10:51 65.5 °F 44.7 °F 29.95 in WNW 6.0 mph 14.0 mph 47 % 0.00 in 949 W/m2
10:56 65.8 °F 43.3 °F 29.95 in NW 6.0 mph 10.0 mph 44 % 0.00 in 225 W/m2
11:01 65.8 °F 43.9 °F 29.95 in NW 7.0 mph 14.0 mph 45 % 0.00 in 236 W/m2
11:06 65.1 °F 42.7 °F 29.95 in WNW 7.0 mph 14.0 mph 44 % 0.00 in 250 W/m2
11:11 65.1 °F 43.2 °F 29.95 in WNW 7.0 mph 14.0 mph 45 % 0.00 in 1004 W/m2
11:16 65.1 °F 43.2 °F 29.95 in WNW 6.0 mph 10.0 mph 45 % 0.00 in 276 W/m2
11:21 64.8 °F 42.9 °F 29.95 in WNW 6.0 mph 14.0 mph 45 % 0.00 in 378 W/m2
11:26 64.6 °F 43.9 °F 29.95 in West 7.0 mph 14.0 mph 47 % 0.00 in 436 W/m2
11:31 64.8 °F 44.6 °F 29.95 in WNW 7.0 mph 11.0 mph 48 % 0.00 in 294 W/m2
11:36 64.9 °F 44.2 °F 29.95 in WNW 7.0 mph 12.0 mph 47 % 0.00 in 352 W/m2
11:41 65.1 °F 44.4 °F 29.95 in WNW 8.0 mph 12.0 mph 47 % 0.00 in 1141 W/m2
11:46 65.5 °F 44.1 °F 29.95 in West 7.0 mph 12.0 mph 46 % 0.00 in 422 W/m2
11:51 65.5 °F 44.7 °F 29.95 in West 6.0 mph 9.0 mph 47 % 0.00 in 378 W/m2
11:56 65.3 °F 44.5 °F 29.95 in West 6.0 mph 12.0 mph 47 % 0.00 in 489 W/m2
12:01 65.7 °F 44.3 °F 29.95 in WNW 6.0 mph 12.0 mph 46 % 0.00 in 475 W/m2
12:06 65.7 °F 44.9 °F 29.95 in WNW 7.0 mph 14.0 mph 47 % 0.00 in 554 W/m2
12:11 65.7 °F 44.3 °F 29.95 in WNW 7.0 mph 14.0 mph 46 % 0.00 in 367 W/m2
12:16 65.7 °F 44.9 °F 29.95 in WNW 5.0 mph 13.0 mph 47 % 0.00 in 390 W/m2
12:21 65.8 °F 44.5 °F 29.95 in West 5.0 mph 11.0 mph 46 % 0.00 in 1141 W/m2
12:26 66.0 °F 43.5 °F 29.95 in WNW 4.0 mph 11.0 mph 44 % 0.00 in 1081 W/m2
12:28 66.0 °F 43.5 °F 29.95 in WNW 4.0 mph 11.0 mph 44 % 0.00 in 1081 W/m2
12:33 66.2 °F 43.6 °F 29.95 in West 2.0 mph 8.0 mph 44 % 0.00 in 462 W/m2
12:38 66.4 °F 43.8 °F 29.95 in West 4.0 mph 9.0 mph 44 % 0.00 in 506 W/m2
12:43 66.9 °F 43.7 °F 29.95 in West 5.0 mph 9.0 mph 43 % 0.00 in 742 W/m2
12:48 67.5 °F 45.4 °F 29.95 in WNW 5.0 mph 12.0 mph 45 % 0.00 in 1090 W/m2
12:53 67.8 °F 44.5 °F 29.94 in West 7.0 mph 13.0 mph 43 % 0.00 in 339 W/m2
12:58 66.9 °F 44.3 °F 29.94 in WSW 6.0 mph 13.0 mph 44 % 0.00 in 385 W/m2
13:03 66.6 °F 44.5 °F 29.94 in West 5.0 mph 11.0 mph 45 % 0.00 in 596 W/m2
13:08 67.1 °F 44.4 °F 29.94 in WNW 5.0 mph 11.0 mph 44 % 0.00 in 381 W/m2
13:13 67.5 °F 44.8 °F 29.94 in WNW 4.0 mph 8.0 mph 44 % 0.00 in 343 W/m2
13:18 67.5 °F 44.2 °F 29.94 in West 5.0 mph 13.0 mph 43 % 0.00 in 325 W/m2
13:23 67.1 °F 44.4 °F 29.94 in WNW 5.0 mph 13.0 mph 44 % 0.00 in 424 W/m2
13:28 67.1 °F 44.4 °F 29.94 in WNW 5.0 mph 11.0 mph 44 % 0.00 in 875 W/m2
13:33 66.9 °F 44.3 °F 29.94 in West 7.0 mph 13.0 mph 44 % 0.00 in 408 W/m2
13:38 66.4 °F 43.8 °F 29.94 in WSW 7.0 mph 13.0 mph 44 % 0.00 in 510 W/m2
13:43 66.9 °F 44.9 °F 29.94 in West 5.0 mph 12.0 mph 45 % 0.00 in 364 W/m2
13:48 67.3 °F 44.0 °F 29.94 in WNW 5.0 mph 9.0 mph 43 % 0.00 in 330 W/m2
13:53 67.3 °F 44.6 °F 29.94 in WNW 5.0 mph 10.0 mph 44 % 0.00 in 439 W/m2
13:58 67.5 °F 43.6 °F 29.94 in WNW 3.0 mph 10.0 mph 42 % 0.00 in 413 W/m2
14:03 67.5 °F 44.2 °F 29.94 in NW 3.0 mph 10.0 mph 43 % 0.00 in 352 W/m2
14:08 67.5 °F 44.2 °F 29.94 in West 6.0 mph 12.0 mph 43 % 0.00 in 468 W/m2
14:13 67.3 °F 44.0 °F 29.93 in West 6.0 mph 13.0 mph 43 % 0.00 in 464 W/m2
14:18 67.1 °F 44.4 °F 29.93 in WSW 6.0 mph 13.0 mph 44 % 0.00 in 671 W/m2
14:23 66.9 °F 44.3 °F 29.93 in WSW 8.0 mph 14.0 mph 44 % 0.00 in 425 W/m2
14:28 67.3 °F 44.6 °F 29.93 in WSW 8.0 mph 14.0 mph 44 % 0.00 in 731 W/m2
14:33 67.5 °F 44.8 °F 29.93 in West 6.0 mph 11.0 mph 44 % 0.00 in 376 W/m2
14:38 67.5 °F 44.2 °F 29.93 in West 6.0 mph 11.0 mph 43 % 0.00 in 350 W/m2
14:43 67.6 °F 44.9 °F 29.93 in WNW 5.0 mph 8.0 mph 44 % 0.00 in 373 W/m2
14:48 67.5 °F 44.2 °F 29.93 in WSW 4.0 mph 10.0 mph 43 % 0.00 in 475 W/m2
14:53 67.3 °F 44.6 °F 29.93 in WNW 5.0 mph 10.0 mph 44 % 0.00 in 422 W/m2
14:58 67.6 °F 44.9 °F 29.93 in NW 5.0 mph 10.0 mph 44 % 0.00 in 868 W/m2
15:03 67.5 °F 43.6 °F 29.93 in West 5.0 mph 10.0 mph 42 % 0.00 in 343 W/m2
15:08 67.3 °F 44.0 °F 29.93 in West 3.0 mph 8.0 mph 43 % 0.00 in 355 W/m2
15:13 67.5 °F 44.2 °F 29.93 in West 4.0 mph 9.0 mph 43 % 0.00 in 339 W/m2
15:18 67.5 °F 44.8 °F 29.93 in West 5.0 mph 9.0 mph 44 % 0.00 in 330 W/m2
15:23 67.6 °F 44.3 °F 29.93 in WNW 4.0 mph 7.0 mph 43 % 0.00 in 343 W/m2
15:28 67.6 °F 44.3 °F 29.93 in West 3.0 mph 7.0 mph 43 % 0.00 in 378 W/m2
15:33 67.6 °F 44.9 °F 29.93 in West 4.0 mph 13.0 mph 44 % 0.00 in 680 W/m2
15:38 67.8 °F 45.1 °F 29.93 in West 5.0 mph 13.0 mph 44 % 0.00 in 489 W/m2
15:43 67.8 °F 44.5 °F 29.93 in West 3.0 mph 9.0 mph 43 % 0.00 in 322 W/m2
15:48 67.8 °F 44.5 °F 29.93 in WSW 2.0 mph 6.0 mph 43 % 0.00 in 366 W/m2
15:53 67.8 °F 44.5 °F 29.93 in WSW 3.0 mph 7.0 mph 43 % 0.00 in 468 W/m2
15:58 67.6 °F 43.7 °F 29.93 in WSW 4.0 mph 7.0 mph 42 % 0.00 in 429 W/m2
16:03 67.6 °F 44.9 °F 29.93 in WSW 2.0 mph 7.0 mph 44 % 0.00 in 394 W/m2
16:08 67.8 °F 44.5 °F 29.93 in WSW 2.0 mph 9.0 mph 43 % 0.00 in 455 W/m2
16:13 67.5 °F 44.2 °F 29.93 in WSW 2.0 mph 9.0 mph 43 % 0.00 in 429 W/m2
16:18 67.6 °F 44.9 °F 29.93 in WNW 2.0 mph 7.0 mph 44 % 0.00 in 408 W/m2
16:24 68.0 °F 44.7 °F 29.93 in WNW 3.0 mph 7.0 mph 43 % 0.00 in 490 W/m2
16:29 68.2 °F 44.2 °F 29.93 in West 2.0 mph 7.0 mph 42 % 0.00 in 339 W/m2
16:33 68.2 °F 44.2 °F 29.93 in WSW 2.0 mph 5.0 mph 42 % 0.00 in 359 W/m2
16:39 67.8 °F 43.9 °F 29.92 in WSW 2.0 mph 5.0 mph 42 % 0.00 in 432 W/m2
16:44 67.5 °F 44.2 °F 29.92 in SW 1.0 mph 5.0 mph 43 % 0.00 in 425 W/m2
16:49 67.6 °F 44.9 °F 29.92 in WSW 3.0 mph 7.0 mph 44 % 0.00 in 413 W/m2
16:54 68.0 °F 44.7 °F 29.92 in WSW 3.0 mph 7.0 mph 43 % 0.00 in 387 W/m2
16:59 68.4 °F 45.6 °F 29.92 in WSW 2.0 mph 8.0 mph 44 % 0.00 in 353 W/m2
17:04 68.5 °F 45.8 °F 29.92 in West 3.0 mph 8.0 mph 44 % 0.00 in 357 W/m2
17:09 68.7 °F 45.3 °F 29.92 in WNW 2.0 mph 6.0 mph 43 % 0.00 in 388 W/m2
17:14 68.7 °F 44.7 °F 29.92 in WNW 2.0 mph 5.0 mph 42 % 0.00 in 355 W/m2
17:19 68.5 °F 45.1 °F 29.92 in West 3.0 mph 6.0 mph 43 % 0.00 in 322 W/m2
17:24 68.4 °F 45.0 °F 29.92 in West 2.0 mph 6.0 mph 43 % 0.00 in 392 W/m2
17:29 68.5 °F 44.5 °F 29.92 in West 1.0 mph 5.0 mph 42 % 0.00 in 272 W/m2
17:34 68.5 °F 45.1 °F 29.92 in SW 2.0 mph 7.0 mph 43 % 0.00 in 313 W/m2
17:39 68.0 °F 45.9 °F 29.92 in SSW 3.0 mph 7.0 mph 45 % 0.00 in 295 W/m2
17:44 67.6 °F 45.5 °F 29.92 in SSW 4.0 mph 6.0 mph 45 % 0.00 in 294 W/m2
17:49 67.6 °F 44.9 °F 29.92 in SW 3.0 mph 6.0 mph 44 % 0.00 in 304 W/m2
17:54 67.6 °F 44.9 °F 29.92 in SW 2.0 mph 5.0 mph 44 % 0.00 in 272 W/m2
17:59 67.6 °F 44.9 °F 29.91 in WSW 2.0 mph 6.0 mph 44 % 0.00 in 271 W/m2
18:04 67.3 °F 45.2 °F 29.91 in SW 2.0 mph 6.0 mph 45 % 0.00 in 308 W/m2
18:09 67.3 °F 45.8 °F 29.91 in SW 2.0 mph 6.0 mph 46 % 0.00 in 290 W/m2
18:14 67.6 °F 45.5 °F 29.91 in WSW 2.0 mph 5.0 mph 45 % 0.00 in 279 W/m2
18:19 67.8 °F 45.7 °F 29.91 in West 2.0 mph 5.0 mph 45 % 0.00 in 257 W/m2
18:24 67.6 °F 45.5 °F 29.91 in West 1.0 mph 5.0 mph 45 % 0.00 in 237 W/m2
18:29 67.5 °F 45.4 °F 29.91 in WSW 1.0 mph 4.0 mph 45 % 0.00 in 234 W/m2
18:34 67.3 °F 45.2 °F 29.91 in Calm   3.0 mph 45 % 0.00 in 281 W/m2
18:39 67.3 °F 45.8 °F 29.91 in NE 1.0 mph 5.0 mph 46 % 0.00 in 269 W/m2
18:44 67.5 °F 45.4 °F 29.91 in NE 1.0 mph 5.0 mph 45 % 0.00 in 234 W/m2
18:45 67.5 °F 45.4 °F 29.91 in NE 1.0 mph 5.0 mph 45 % 0.00 in 234 W/m2
18:50 67.5 °F 45.4 °F 29.91 in NE 1.0 mph 4.0 mph 45 % 0.00 in 267 W/m2
18:55 67.5 °F 45.4 °F 29.91 in Calm   2.0 mph 45 % 0.00 in 214 W/m2
19:00 67.5 °F 45.9 °F 29.91 in Calm   1.0 mph 46 % 0.00 in 241 W/m2
19:05 67.5 °F 45.4 °F 29.91 in Calm   4.0 mph 45 % 0.00 in 250 W/m2
19:10 67.6 °F 45.5 °F 29.91 in NE 1.0 mph 4.0 mph 45 % 0.00 in 225 W/m2
19:11 67.5 °F 44.8 °F 29.91 in NE 1.0 mph 4.0 mph 44 % 0.00 in 199 W/m2
19:16 67.5 °F 45.4 °F 29.91 in East 2.0 mph 6.0 mph 45 % 0.00 in 213 W/m2
19:21 67.5 °F 45.4 °F 29.91 in East 2.0 mph 6.0 mph 45 % 0.00 in 158 W/m2
19:26 67.1 °F 45.0 °F 29.90 in ENE 3.0 mph 7.0 mph 45 % 0.00 in 186 W/m2
19:31 66.9 °F 44.9 °F 29.91 in East 3.0 mph 7.0 mph 45 % 0.00 in 149 W/m2
19:36 66.4 °F 45.5 °F 29.91 in East 4.0 mph 7.0 mph 47 % 0.00 in 100 W/m2
19:41 65.8 °F 45.0 °F 29.91 in ENE 4.0 mph 7.0 mph 47 % 0.00 in 81 W/m2
19:46 65.7 °F 45.4 °F 29.91 in East 3.0 mph 7.0 mph 48 % 0.00 in 100 W/m2
19:51 65.3 °F 45.1 °F 29.90 in ENE 3.0 mph 9.0 mph 48 % 0.00 in 98 W/m2
19:56 65.1 °F 47.1 °F 29.90 in ENE 4.0 mph 10.0 mph 52 % 0.00 in 83 W/m2
20:01 64.8 °F 48.7 °F 29.90 in East 6.0 mph 12.0 mph 56 % 0.00 in 63 W/m2
20:06 64.2 °F 49.6 °F 29.90 in East 7.0 mph 12.0 mph 59 % 0.00 in 62 W/m2
20:11 63.5 °F 49.8 °F 29.91 in East 7.0 mph 11.0 mph 61 % 0.00 in 56 W/m2
20:17 63.1 °F 50.3 °F 29.91 in East 7.0 mph 13.0 mph 63 % 0.00 in 47 W/m2
20:22 62.8 °F 50.4 °F 29.91 in East 7.0 mph 15.0 mph 64 % 0.00 in 44 W/m2
20:27 62.2 °F 50.3 °F 29.91 in East 6.0 mph 15.0 mph 65 % 0.00 in 39 W/m2
20:32 61.9 °F 50.4 °F 29.91 in East 6.0 mph 11.0 mph 66 % 0.00 in 37 W/m2
20:37 61.7 °F 50.6 °F 29.91 in East 6.0 mph 13.0 mph 67 % 0.00 in 35 W/m2
20:42 61.3 °F 50.7 °F 29.91 in East 7.0 mph 13.0 mph 68 % 0.00 in 37 W/m2
20:47 61.2 °F 50.9 °F 29.91 in East 7.0 mph 13.0 mph 69 % 0.00 in 30 W/m2
20:52 61.2 °F 50.9 °F 29.91 in East 5.0 mph 13.0 mph 69 % 0.00 in 23 W/m2
20:57 61.0 °F 50.7 °F 29.91 in ESE 5.0 mph 11.0 mph 69 % 0.00 in 16 W/m2
21:02 61.0 °F 51.1 °F 29.91 in ESE 5.0 mph 11.0 mph 70 % 0.00 in 12 W/m2
21:07 60.6 °F 50.8 °F 29.91 in ESE 6.0 mph 11.0 mph 70 % 0.00 in 7 W/m2
21:12 60.6 °F 50.8 °F 29.91 in ESE 6.0 mph 11.0 mph 70 % 0.00 in 5 W/m2
21:13 60.6 °F 50.8 °F 29.91 in ESE 6.0 mph 11.0 mph 70 % 0.00 in 5 W/m2
21:18 60.4 °F 50.6 °F 29.91 in ESE 6.0 mph 11.0 mph 70 % 0.00 in 0 W/m2
21:23 60.3 °F 50.4 °F 29.91 in ESE 7.0 mph 15.0 mph 70 % 0.00 in 0 W/m2
21:28 60.1 °F 50.3 °F 29.91 in ESE 8.0 mph 15.0 mph 70 % 0.00 in 0 W/m2
21:33 59.9 °F 50.1 °F 29.91 in ESE 6.0 mph 13.0 mph 70 % 0.00 in 0 W/m2
21:38 59.7 °F 49.9 °F 29.91 in ESE 7.0 mph 11.0 mph 70 % 0.00 in 0 W/m2
21:43 59.5 °F 49.7 °F 29.91 in ESE 8.0 mph 12.0 mph 70 % 0.00 in 0 W/m2
21:48 59.5 °F 49.7 °F 29.92 in ESE 7.0 mph 12.0 mph 70 % 0.00 in 0 W/m2
21:54 59.5 °F 49.7 °F 29.92 in ESE 5.0 mph 12.0 mph 70 % 0.00 in 0 W/m2
21:59 59.4 °F 49.6 °F 29.92 in ESE 5.0 mph 9.0 mph 70 % 0.00 in 0 W/m2
22:04 59.2 °F 49.0 °F 29.91 in ESE 6.0 mph 12.0 mph 69 % 0.00 in 0 W/m2
22:09 59.2 °F 49.4 °F 29.92 in ESE 6.0 mph 12.0 mph 70 % 0.00 in 0 W/m2
22:14 59.2 °F 49.4 °F 29.91 in ESE 4.0 mph 9.0 mph 70 % 0.00 in 0 W/m2
22:19 58.8 °F 48.7 °F 29.91 in ESE 5.0 mph 10.0 mph 69 % 0.00 in 0 W/m2
22:24 58.8 °F 48.7 °F 29.92 in ESE 6.0 mph 10.0 mph 69 % 0.00 in 0 W/m2
22:29 58.6 °F 48.5 °F 29.91 in ESE 5.0 mph 10.0 mph 69 % 0.00 in 0 W/m2
22:34 58.6 °F 48.5 °F 29.91 in ESE 4.0 mph 8.0 mph 69 % 0.00 in 0 W/m2
22:39 58.6 °F 48.1 °F 29.91 in ESE 4.0 mph 8.0 mph 68 % 0.00 in 0 W/m2
22:44 58.6 °F 48.1 °F 29.91 in ESE 4.0 mph 8.0 mph 68 % 0.00 in 0 W/m2
22:49 58.5 °F 47.9 °F 29.91 in ESE 4.0 mph 8.0 mph 68 % 0.00 in 0 W/m2
22:54 58.5 °F 47.9 °F 29.91 in ESE 4.0 mph 8.0 mph 68 % 0.00 in 0 W/m2
22:59 58.3 °F 47.8 °F 29.91 in ESE 4.0 mph 10.0 mph 68 % 0.00 in 0 W/m2
23:04 58.3 °F 47.8 °F 29.91 in ESE 5.0 mph 10.0 mph 68 % 0.00 in 0 W/m2
23:09 58.3 °F 47.8 °F 29.91 in SE 5.0 mph 9.0 mph 68 % 0.00 in 0 W/m2
23:14 58.3 °F 47.4 °F 29.91 in ESE 4.0 mph 8.0 mph 67 % 0.00 in 0 W/m2
23:19 58.1 °F 47.2 °F 29.91 in ESE 5.0 mph 8.0 mph 67 % 0.00 in 0 W/m2
23:24 57.9 °F 47.0 °F 29.91 in ESE 5.0 mph 9.0 mph 67 % 0.00 in 0 W/m2
23:29 57.9 °F 47.0 °F 29.91 in ESE 6.0 mph 10.0 mph 67 % 0.00 in 0 W/m2
23:34 57.7 °F 46.9 °F 29.91 in ESE 6.0 mph 10.0 mph 67 % 0.00 in 0 W/m2
23:39 57.7 °F 46.9 °F 29.91 in ESE 6.0 mph 10.0 mph 67 % 0.00 in 0 W/m2
23:44 57.6 °F 46.7 °F 29.91 in ESE 7.0 mph 10.0 mph 67 % 0.00 in 0 W/m2
23:49 57.6 °F 47.1 °F 29.91 in ESE 6.0 mph 10.0 mph 68 % 0.00 in 0 W/m2
23:55 57.6 °F 47.1 °F 29.91 in ESE 5.0 mph 9.0 mph 68 % 0.00 in 0 W/m2
Delerius-Weather
Compliments of Weather Underground - 2.25 mb

Data updates at regular intervals.